Time;durP1;ratioP1;P1;durP2;ratioP2;P2;SDS_P1;SDS_P2;PMS_P1;PMS_P2;Temp;Humidity;BMP_temperature;BMP_pressure;BME280_temperature;BME280_humidity;BME280_pressure;Samples;Min_cycle;Max_cycle;Signal;HPM_P1;HPM_P2
2022/04/24 00:01:54;;;;;;;;;;;;;;;11.77;100.00;99723.75;5061230;28;19920;-83
2022/04/24 00:04:40;;;;;;;;;;;;;;;11.77;100.00;99714.78;5058473;28;19916;-83
2022/04/24 00:07:24;;;;;;;;;;;;;;;11.46;100.00;99727.13;5052755;28;19916;-83
2022/04/24 00:10:10;;;;;;;;;;;;;;;11.63;100.00;99725.25;5060071;28;19916;-83
2022/04/24 00:12:54;;;;;;;;;;;;;;;11.63;100.00;99727.97;5059628;28;19920;-83
2022/04/24 00:15:40;;;;;;;;;;;;;;;11.55;100.00;99719.59;5059129;28;19921;-82
2022/04/24 00:18:25;;;;;;;;;;;;;;;11.59;100.00;99731.38;5057388;28;19916;-85
2022/04/24 00:21:09;;;;;;;;;;;;;;;11.22;100.00;99678.19;5051414;28;19917;-84
2022/04/24 00:23:54;;;;;;;;;;;;;;;11.55;100.00;99722.31;5066106;28;19917;-84
2022/04/24 00:26:39;;;;;;;;;;;;;;;11.35;100.00;99714.31;5059939;28;19917;-84
2022/04/24 00:29:24;;;;;;;;;;;;;;;11.34;100.00;99707.28;5063042;28;19917;-84
2022/04/24 00:32:08;;;;;;;;;;;;;;;11.34;100.00;99701.84;5062103;28;19917;-84
2022/04/24 00:34:53;;;;;;;;;;;;;;;11.49;100.00;99690.22;5058886;28;20301;-83
2022/04/24 00:37:37;;;;;;;;;;;;;;;11.46;100.00;99686.28;5052749;28;20377;-83
2022/04/24 00:40:22;;;;;;;;;;;;;;;11.48;100.00;99702.25;5060526;28;19928;-83
2022/04/24 00:43:06;;;;;;;;;;;;;;;11.53;100.00;99700.06;5059990;28;19916;-84
2022/04/24 00:46:13;;;;;;;;;;;;;;;11.55;100.00;99697.00;5066326;28;19917;-83
2022/04/24 00:48:57;;;;;;;;;;;;;;;11.17;99.97;99699.41;5060540;28;19928;-83
2022/04/24 00:51:43;;;;;;;;;;;;;;;10.94;100.00;99704.53;5058462;28;19920;-83
2022/04/24 00:54:27;;;;;;;;;;;;;;;10.93;100.00;99697.50;5059185;28;19921;-84
2022/04/24 00:57:16;;;;;;;;;;;;;;;11.15;100.00;99699.75;5057823;28;20312;-84
2022/04/24 01:00:00;;;;;;;;;;;;;;;11.22;98.94;99689.09;5053818;28;19921;-84
2022/04/24 01:02:46;;;;;;;;;;;;;;;11.25;99.83;99682.16;5047456;28;19917;-85
2022/04/24 01:05:30;;;;;;;;;;;;;;;11.25;100.00;99687.59;5041230;28;19921;-84
2022/04/24 01:08:15;;;;;;;;;;;;;;;11.33;98.97;99689.38;5059132;28;19916;-85
2022/04/24 01:11:00;;;;;;;;;;;;;;;11.29;98.49;99704.81;5059559;28;19917;-85
2022/04/24 01:13:44;;;;;;;;;;;;;;;11.25;98.40;99688.38;5060593;28;20300;-85
2022/04/24 01:16:29;;;;;;;;;;;;;;;11.21;98.29;99690.22;5059438;28;19921;-85
2022/04/24 01:19:14;;;;;;;;;;;;;;;11.22;98.67;99694.53;5063971;28;19920;-86
2022/04/24 01:21:59;;;;;;;;;;;;;;;11.17;98.68;99688.53;5057194;28;19917;-84
2022/04/24 01:24:44;;;;;;;;;;;;;;;11.27;99.10;99693.50;5053379;28;19916;-84
2022/04/24 01:27:28;;;;;;;;;;;;;;;11.35;98.71;99692.53;5065364;28;19916;-84
2022/04/24 01:30:12;;;;;;;;;;;;;;;11.48;97.69;99686.69;5060973;28;19942;-84
2022/04/24 01:32:57;;;;;;;;;;;;;;;11.65;95.71;99690.28;5058543;28;19921;-84
2022/04/24 01:35:41;;;;;;;;;;;;;;;11.80;94.53;99682.19;5062509;28;19920;-83
2022/04/24 01:38:28;;;;;;;;;;;;;;;11.59;91.93;99690.53;5058571;28;19917;-82
2022/04/24 01:41:13;;;;;;;;;;;;;;;11.60;91.75;99688.59;5055689;28;19917;-84
2022/04/24 01:43:58;;;;;;;;;;;;;;;11.73;91.41;99692.91;5062384;28;19917;-83
2022/04/24 01:46:43;;;;;;;;;;;;;;;11.78;89.36;99684.47;5060106;28;19917;-86
2022/04/24 01:49:27;;;;;;;;;;;;;;;11.42;88.78;99701.72;5063100;28;19921;-85
2022/04/24 01:52:12;;;;;;;;;;;;;;;11.31;89.85;99687.00;5058717;28;19920;-85
2022/04/24 01:54:56;;;;;;;;;;;;;;;11.52;90.83;99679.44;5061586;28;19917;-85
2022/04/24 01:57:41;;;;;;;;;;;;;;;11.74;91.17;99685.50;5058455;28;19920;-85
2022/04/24 02:00:25;;;;;;;;;;;;;;;11.89;90.65;99671.91;5058048;28;20405;-85
2022/04/24 02:03:10;;;;;;;;;;;;;;;11.98;90.62;99678.00;5064202;28;20296;-85
2022/04/24 02:05:55;;;;;;;;;;;;;;;12.11;90.87;99686.09;5059891;28;19920;-85
2022/04/24 02:08:39;;;;;;;;;;;;;;;12.18;90.87;99695.25;5044587;28;19917;-84
2022/04/24 02:11:24;;;;;;;;;;;;;;;12.24;90.33;99715.63;5052357;28;19916;-85
2022/04/24 02:17:11;;;;;;;;;;;;;;;11.92;90.00;99773.94;5002155;23;19932;-77
2022/04/24 08:14:02;;;;;;;;;;;;;;;12.43;72.42;99780.41;4877221;24;19931;-79
2022/04/24 08:16:47;;;;;;;;;;;;;;;12.66;71.64;99781.38;4721044;30;19927;-79
2022/04/24 08:19:32;;;;;;;;;;;;;;;12.47;71.35;99775.03;4723312;30;19923;-79
2022/04/24 08:22:16;;;;;;;;;;;;;;;12.42;70.62;99773.34;4722216;30;19927;-81
2022/04/24 08:25:00;;;;;;;;;;;;;;;12.66;70.06;99770.44;4763697;24;19930;-72
2022/04/24 08:27:46;;;;;;;;;;;;;;;12.58;69.32;99774.16;4751688;30;20394;-71
2022/04/24 08:30:31;;;;;;;;;;;;;;;12.89;70.04;99775.31;4754230;30;19922;-71
2022/04/24 08:33:17;;;;;;;;;;;;;;;12.77;69.61;99773.44;4743856;30;19922;-71
2022/04/24 08:36:02;;;;;;;;;;;;;;;12.84;69.80;99770.91;4766464;30;19922;-72
2022/04/24 08:38:47;;;;;;;;;;;;;;;12.83;70.17;99783.75;4750000;30;19930;-71
2022/04/24 08:41:34;;;;;;;;;;;;;;;12.61;69.07;99776.19;4752126;30;19926;-71
2022/04/24 08:44:20;;;;;;;;;;;;;;;12.77;70.31;99774.25;4747559;30;19922;-71
2022/04/24 08:47:05;;;;;;;;;;;;;;;12.75;68.61;99781.97;4752233;30;19922;-71
2022/04/24 08:49:52;;;;;;;;;;;;;;;12.72;67.19;99784.63;4746325;30;20299;-71
2022/04/24 08:52:37;;;;;;;;;;;;;;;12.64;69.17;99791.84;4751450;30;19922;-72
2022/04/24 08:55:23;;;;;;;;;;;;;;;12.88;67.91;99799.06;4746169;30;19926;-71
2022/04/24 08:58:08;;;;;;;;;;;;;;;13.03;66.88;99792.00;4751615;30;20407;-72
2022/04/24 09:00:53;;;;;;;;;;;;;;;13.02;67.77;99790.41;4751684;30;20391;-71
2022/04/24 09:03:37;;;;;;;;;;;;;;;13.35;66.10;99796.31;4743665;30;19926;-71
2022/04/24 09:06:22;;;;;;;;;;;;;;;13.60;65.95;99799.59;4749296;30;19922;-71
2022/04/24 09:09:08;;;;;;;;;;;;;;;13.86;66.76;99807.16;4751394;30;19926;-71
2022/04/24 09:11:53;;;;;;;;;;;;;;;14.08;66.47;99814.63;4748422;30;19922;-71
2022/04/24 09:14:37;;;;;;;;;;;;;;;14.31;65.39;99817.41;4746836;30;19922;-71
2022/04/24 09:17:23;;;;;;;;;;;;;;;14.00;62.95;99815.63;4743759;30;19926;-71
2022/04/24 09:20:16;;;;;;;;;;;;;;;13.55;62.93;99825.25;4753861;30;19934;-71
2022/04/24 09:23:03;;;;;;;;;;;;;;;13.60;64.19;99832.38;4750580;30;19922;-71
2022/04/24 09:25:48;;;;;;;;;;;;;;;13.76;65.03;99829.59;4744888;30;19926;-71
2022/04/24 09:28:40;;;;;;;;;;;;;;;13.99;63.59;99836.72;4746836;30;19922;-71
2022/04/24 09:31:29;;;;;;;;;;;;;;;14.12;63.71;99840.09;4746128;30;19922;-72
2022/04/24 09:34:16;;;;;;;;;;;;;;;13.92;63.36;99842.03;4751794;30;19922;-71
2022/04/24 09:37:05;;;;;;;;;;;;;;;13.87;62.46;99830.59;4750768;30;20379;-71
2022/04/24 09:39:50;;;;;;;;;;;;;;;13.80;61.45;99838.66;4751195;30;19926;-71
2022/04/24 09:42:34;;;;;;;;;;;;;;;14.12;59.86;99849.06;4751719;30;20376;-71
2022/04/24 09:45:25;;;;;;;;;;;;;;;14.88;59.26;99861.09;4751618;30;20295;-71
2022/04/24 09:48:10;;;;;;;;;;;;;;;15.54;56.08;99868.09;4750322;30;19926;-71
2022/04/24 09:50:57;;;;;;;;;;;;;;;14.71;57.39;99874.47;4750009;30;20100;-71
2022/04/24 09:53:43;;;;;;;;;;;;;;;14.65;57.72;99881.41;4748558;30;20395;-71
2022/04/24 09:56:28;;;;;;;;;;;;;;;15.18;56.66;99869.44;4749219;30;19926;-71
2022/04/24 09:59:13;;;;;;;;;;;;;;;15.88;55.53;99876.38;4748438;30;20391;-71
2022/04/24 10:01:58;;;;;;;;;;;;;;;18.49;48.61;99871.56;4747050;30;19926;-71
2022/04/24 10:04:44;;;;;;;;;;;;;;;19.57;44.25;99878.41;4746544;30;20390;-71
2022/04/24 10:07:29;;;;;;;;;;;;;;;22.99;37.18;99876.06;4763985;30;19926;-71
2022/04/24 10:10:16;;;;;;;;;;;;;;;24.60;33.81;99880.25;4749345;30;20311;-71
2022/04/24 10:13:00;;;;;;;;;;;;;;;25.71;31.33;99882.78;4748905;30;20328;-71
2022/04/24 10:15:48;;;;;;;;;;;;;;;22.07;37.78;99879.25;4740803;30;19922;-72
2022/04/24 10:18:47;;;;;;;;;;;;;;;19.39;42.24;99879.59;4746574;30;20135;-71
2022/04/24 10:21:38;;;;;;;;;;;;;;;18.41;46.64;99881.75;4746406;30;19922;-71
2022/04/24 10:24:22;;;;;;;;;;;;;;;18.16;47.67;99883.63;4751270;30;19922;-71
2022/04/24 10:27:11;;;;;;;;;;;;;;;17.93;47.93;99870.94;4747920;30;19926;-72
2022/04/24 10:29:59;;;;;;;;;;;;;;;17.22;50.41;99866.88;4747232;30;19926;-71
2022/04/24 10:32:47;;;;;;;;;;;;;;;17.47;48.60;99864.34;4758902;30;19922;-71
2022/04/24 10:35:32;;;;;;;;;;;;;;;17.37;50.73;99862.31;4753888;30;19922;-72
2022/04/24 10:38:17;;;;;;;;;;;;;;;17.20;50.89;99858.25;4751279;30;19926;-72
2022/04/24 10:41:03;;;;;;;;;;;;;;;17.38;50.17;99861.91;4755850;30;19922;-72
2022/04/24 10:43:51;;;;;;;;;;;;;;;17.99;48.28;99851.31;4752300;30;19926;-72
2022/04/24 10:46:40;;;;;;;;;;;;;;;17.61;48.37;99850.72;4752871;30;19922;-72
2022/04/24 10:49:32;;;;;;;;;;;;;;;17.67;46.15;99851.16;4750216;30;19926;-72
2022/04/24 10:52:16;;;;;;;;;;;;;;;17.00;47.36;99843.97;4754745;30;20291;-72
2022/04/24 10:55:06;;;;;;;;;;;;;;;16.84;47.50;99846.16;4754087;30;19922;-72
2022/04/24 10:58:00;;;;;;;;;;;;;;;17.26;48.24;99839.44;4762215;30;19926;-72
2022/04/24 11:00:44;;;;;;;;;;;;;;;17.67;46.29;99835.44;4753112;30;19922;-72
2022/04/24 11:03:37;;;;;;;;;;;;;;;20.16;40.28;99845.53;4754161;30;19922;-72
2022/04/24 11:06:23;;;;;;;;;;;;;;;21.96;37.87;99842.59;4752013;30;19922;-72
2022/04/24 11:09:09;;;;;;;;;;;;;;;21.29;39.81;99839.28;4753270;30;19926;-72
2022/04/24 11:11:58;;;;;;;;;;;;;;;23.56;35.40;99844.63;4748336;30;20295;-72
2022/04/24 11:14:43;;;;;;;;;;;;;;;26.22;28.17;99844.75;4751457;30;19922;-72
2022/04/24 11:17:28;;;;;;;;;;;;;;;27.58;26.29;99842.81;4745969;30;19934;-72
2022/04/24 11:20:13;;;;;;;;;;;;;;;25.73;28.71;99832.22;4750611;30;19922;-72
2022/04/24 11:22:58;;;;;;;;;;;;;;;24.79;30.68;99817.47;4753234;30;19934;-72
2022/04/24 11:25:43;;;;;;;;;;;;;;;30.24;24.06;99829.31;4752545;30;19922;-72
2022/04/24 11:28:39;;;;;;;;;;;;;;;32.65;20.30;99836.75;4754485;30;19925;-72
2022/04/24 11:31:24;;;;;;;;;;;;;;;32.44;19.99;99840.72;4744583;30;20306;-72
2022/04/24 11:34:08;;;;;;;;;;;;;;;35.34;17.64;99834.22;4746078;30;20407;-72
2022/04/24 11:36:58;;;;;;;;;;;;;;;36.47;17.04;99827.56;4753454;30;19948;-72
2022/04/24 11:39:42;;;;;;;;;;;;;;;34.53;17.67;99823.41;4752808;30;20379;-72
2022/04/24 11:42:30;;;;;;;;;;;;;;;35.01;17.44;99825.53;4751278;30;19922;-72
2022/04/24 11:51:33;;;;;;;;;;;;;;;37.31;14.55;99825.38;4749655;30;19922;-72
2022/04/24 11:54:17;;;;;;;;;;;;;;;38.63;14.00;99825.84;4751307;30;19926;-72
2022/04/24 11:57:03;;;;;;;;;;;;;;;38.66;13.19;99818.31;4751785;30;19922;-72
2022/04/24 11:59:54;;;;;;;;;;;;;;;38.07;12.69;99819.84;4752302;30;20295;-72
2022/04/24 12:02:40;;;;;;;;;;;;;;;38.54;14.53;99814.84;4747504;30;20387;-73
2022/04/24 12:05:29;;;;;;;;;;;;;;;34.45;16.94;99802.53;4752681;30;20384;-72
2022/04/24 12:08:14;;;;;;;;;;;;;;;32.29;18.27;99792.88;4739830;30;19922;-72
2022/04/24 12:10:58;;;;;;;;;;;;;;;28.01;23.31;99782.59;4749745;30;19926;-72
2022/04/24 12:13:43;;;;;;;;;;;;;;;28.58;25.26;99778.41;4745021;30;19922;-72
2022/04/24 12:16:28;;;;;;;;;;;;;;;30.66;21.18;99778.06;4747789;30;20230;-72
2022/04/24 12:19:17;;;;;;;;;;;;;;;32.22;20.04;99788.41;4751672;30;19926;-72
2022/04/24 12:22:07;;;;;;;;;;;;;;;33.44;17.88;99785.84;4752930;30;19922;-72
2022/04/24 12:24:52;;;;;;;;;;;;;;;34.03;18.24;99777.00;4755617;30;19922;-72
2022/04/24 12:27:36;;;;;;;;;;;;;;;30.90;19.70;99770.44;4749343;30;19922;-72
2022/04/24 12:30:21;;;;;;;;;;;;;;;26.95;24.78;99764.81;4747291;30;19922;-72
2022/04/24 12:33:07;;;;;;;;;;;;;;;26.77;25.92;99764.56;4768803;30;19922;-72
2022/04/24 12:35:51;;;;;;;;;;;;;;;25.83;27.33;99758.72;4753082;30;19922;-72
2022/04/24 12:38:36;;;;;;;;;;;;;;;25.74;26.54;99750.22;4753122;30;20383;-72
2022/04/24 12:41:22;;;;;;;;;;;;;;;25.38;28.26;99753.97;4753121;30;19922;-72
2022/04/24 12:44:07;;;;;;;;;;;;;;;26.39;27.01;99745.88;4752531;30;19930;-72
2022/04/24 12:46:51;;;;;;;;;;;;;;;26.82;27.24;99750.84;4752735;30;19922;-72
2022/04/24 12:49:39;;;;;;;;;;;;;;;26.25;26.58;99742.75;4756702;30;19922;-72
2022/04/24 12:52:24;;;;;;;;;;;;;;;25.12;29.15;99741.94;4761901;30;19922;-72
2022/04/24 12:55:10;;;;;;;;;;;;;;;26.14;27.38;99739.47;4745234;30;19930;-72
2022/04/24 12:57:54;;;;;;;;;;;;;;;26.28;26.54;99734.28;4752832;30;19926;-72
2022/04/24 13:00:40;;;;;;;;;;;;;;;27.12;26.02;99735.50;4749002;30;20387;-72
2022/04/24 13:03:24;;;;;;;;;;;;;;;27.80;25.94;99724.69;4750121;30;19922;-72
2022/04/24 13:06:09;;;;;;;;;;;;;;;27.02;26.20;99721.94;4763999;30;19930;-72
2022/04/24 13:08:55;;;;;;;;;;;;;;;25.00;30.52;99709.25;4741656;30;19926;-72
2022/04/24 13:11:41;;;;;;;;;;;;;;;26.39;28.13;99714.41;4750135;30;19922;-72
2022/04/24 13:14:25;;;;;;;;;;;;;;;23.97;31.50;99705.38;4743498;30;20395;-72
2022/04/24 13:20:13;;;;;;;;;;;;;;;20.07;39.95;99698.88;4746026;30;19922;-72
2022/04/24 13:22:59;;;;;;;;;;;;;;;21.09;37.49;99700.03;4743550;30;19923;-72
2022/04/24 13:25:44;;;;;;;;;;;;;;;20.69;38.55;99703.56;4746886;30;19930;-72
2022/04/24 13:28:29;;;;;;;;;;;;;;;20.29;39.91;99700.31;4745625;30;20303;-72
2022/04/24 13:31:14;;;;;;;;;;;;;;;20.55;38.88;99707.25;4749283;30;19931;-72
2022/04/24 13:33:58;;;;;;;;;;;;;;;20.26;40.22;99712.16;4751210;30;19922;-72
2022/04/24 13:38:17;;;;;;;;;;;;;;;20.95;38.64;99711.22;4749173;30;19922;-72
2022/04/24 13:39:52;;;;;;;;;;;;;;;21.50;37.66;99710.25;4750802;30;20384;-72
2022/04/24 13:42:37;;;;;;;;;;;;;;;20.67;38.22;99717.03;4761790;30;19922;-72
2022/04/24 13:45:23;;;;;;;;;;;;;;;19.47;40.81;99716.50;4749721;30;20391;-72
2022/04/24 13:48:08;;;;;;;;;;;;;;;19.36;41.50;99714.94;4750422;30;19922;-72
2022/04/24 13:50:56;;;;;;;;;;;;;;;19.80;40.29;99715.19;4745905;30;20300;-72
2022/04/24 13:53:41;;;;;;;;;;;;;;;19.04;42.32;99710.31;4745812;30;19926;-72
2022/04/24 13:56:25;;;;;;;;;;;;;;;19.06;42.15;99709.88;4743750;30;20392;-72
2022/04/24 13:59:10;;;;;;;;;;;;;;;18.89;42.89;99714.25;4746257;30;19926;-72
2022/04/24 14:01:54;;;;;;;;;;;;;;;18.53;45.25;99712.66;4736309;30;19944;-72
2022/04/24 14:04:38;;;;;;;;;;;;;;;19.04;43.72;99707.53;4746455;30;20371;-72
2022/04/24 14:07:23;;;;;;;;;;;;;;;18.86;44.19;99704.00;4745247;30;19922;-72
2022/04/24 14:10:08;;;;;;;;;;;;;;;18.08;45.13;99703.94;4746294;30;19922;-72
2022/04/24 14:12:52;;;;;;;;;;;;;;;18.00;46.78;99709.81;4748407;30;19926;-72
2022/04/24 14:15:37;;;;;;;;;;;;;;;17.81;46.24;99700.75;4744770;30;20510;-72
2022/04/24 14:18:21;;;;;;;;;;;;;;;17.64;47.82;99704.22;4744048;30;19930;-72
2022/04/24 14:21:06;;;;;;;;;;;;;;;18.49;46.18;99704.38;4751036;30;19926;-72
2022/04/24 14:23:51;;;;;;;;;;;;;;;18.23;44.77;99699.28;4749972;30;19922;-72
2022/04/24 14:26:35;;;;;;;;;;;;;;;18.38;42.88;99696.16;4762595;24;19945;-74
2022/04/24 14:29:20;;;;;;;;;;;;;;;17.89;44.13;99707.03;4747384;30;19926;-74
2022/04/24 14:32:05;;;;;;;;;;;;;;;18.39;41.82;99694.94;4749836;30;19926;-74
2022/04/24 14:34:50;;;;;;;;;;;;;;;18.71;41.73;99692.22;4752870;30;19922;-74
2022/04/24 14:37:38;;;;;;;;;;;;;;;18.29;44.22;99698.47;4749284;30;19922;-74
2022/04/24 14:40:22;;;;;;;;;;;;;;;17.87;43.27;99688.19;4747255;30;20375;-74
2022/04/24 14:43:09;;;;;;;;;;;;;;;18.83;42.80;99696.56;4750172;30;20379;-74
2022/04/24 14:58:08;;;;;;;;;;;;;;;17.50;45.86;99693.13;4749435;30;19930;-74
2022/04/24 15:00:53;;;;;;;;;;;;;;;17.36;46.38;99691.13;4748952;30;19922;-73
2022/04/24 15:03:37;;;;;;;;;;;;;;;17.34;46.54;99695.41;4750227;30;19948;-73
2022/04/24 15:06:22;;;;;;;;;;;;;;;17.32;45.52;99697.78;4746660;30;19922;-74
2022/04/24 15:09:06;;;;;;;;;;;;;;;17.26;46.90;99691.06;4745596;30;19922;-74
2022/04/24 15:11:51;;;;;;;;;;;;;;;17.23;46.98;99692.63;4750666;30;20342;-73
2022/04/24 15:14:36;;;;;;;;;;;;;;;17.07;48.10;99694.88;4746700;30;19922;-73
2022/04/24 15:17:21;;;;;;;;;;;;;;;16.91;48.38;99680.66;4754058;30;19922;-74
2022/04/24 15:20:06;;;;;;;;;;;;;;;16.88;46.46;99684.97;4754798;30;19926;-74
2022/04/24 15:22:53;;;;;;;;;;;;;;;17.03;46.44;99688.56;4753348;30;19922;-73
2022/04/24 15:25:38;;;;;;;;;;;;;;;16.92;48.06;99694.00;4753877;30;19923;-74
2022/04/24 15:28:24;;;;;;;;;;;;;;;16.88;47.61;99689.66;4751073;30;19922;-74
2022/04/24 15:31:09;;;;;;;;;;;;;;;16.70;47.06;99699.75;4753602;30;20403;-74
2022/04/24 15:33:54;;;;;;;;;;;;;;;16.79;47.51;99695.50;4750845;30;19949;-74
2022/04/24 15:36:39;;;;;;;;;;;;;;;16.97;47.55;99693.63;4763919;30;19926;-74
2022/04/24 15:39:24;;;;;;;;;;;;;;;17.15;47.56;99690.22;4761976;30;19926;-74
2022/04/24 15:42:09;;;;;;;;;;;;;;;17.13;46.64;99692.56;5108593;24;19938;-79
2022/04/24 15:47:57;;;;;;;;;;;;;;;17.33;46.62;99694.63;4764901;29;20291;-78
2022/04/24 15:50:42;;;;;;;;;;;;;;;17.40;47.79;99685.63;4760369;30;19922;-77
2022/04/24 15:53:26;;;;;;;;;;;;;;;17.43;46.45;99693.88;4750408;30;19922;-77
2022/04/24 15:56:10;;;;;;;;;;;;;;;17.21;46.55;99686.72;4781342;24;20308;-78
2022/04/24 15:58:55;;;;;;;;;;;;;;;17.22;44.68;99690.28;4754994;30;19934;-79
2022/04/24 16:01:41;;;;;;;;;;;;;;;17.30;46.78;99686.38;4752947;30;19923;-79
2022/04/24 16:04:25;;;;;;;;;;;;;;;17.29;45.54;99687.53;4749445;30;19922;-79
2022/04/24 16:07:11;;;;;;;;;;;;;;;17.23;45.33;99691.81;4747097;30;19922;-79
2022/04/24 16:09:57;;;;;;;;;;;;;;;17.24;45.71;99685.94;4752894;30;19930;-79
2022/04/24 16:12:42;;;;;;;;;;;;;;;16.95;46.38;99687.75;4751521;30;19922;-79
2022/04/24 16:15:27;;;;;;;;;;;;;;;16.71;48.45;99685.59;4753283;30;20325;-78
2022/04/24 16:18:16;;;;;;;;;;;;;;;16.51;48.12;99684.25;4755528;30;19927;-78
2022/04/24 16:21:02;;;;;;;;;;;;;;;16.57;45.91;99677.25;4751618;30;19922;-79
2022/04/24 16:23:46;;;;;;;;;;;;;;;16.68;46.18;99669.91;4766851;30;20383;-79
2022/04/24 16:26:30;;;;;;;;;;;;;;;16.59;46.11;99673.00;4767177;30;19922;-79
2022/04/24 16:29:55;;;;;;;;;;;;;;;16.66;46.34;99678.53;4765275;30;19923;-79
2022/04/24 16:32:23;;;;;;;;;;;;;;;16.56;46.54;99687.44;4753088;30;19922;-79
2022/04/24 16:35:10;;;;;;;;;;;;;;;16.67;47.30;99691.09;4753808;30;20431;-79
2022/04/24 16:37:54;;;;;;;;;;;;;;;16.61;47.43;99689.06;4764631;30;20423;-79
2022/04/24 16:40:40;;;;;;;;;;;;;;;16.62;46.98;99691.44;4752598;30;20400;-79
2022/04/24 16:43:24;;;;;;;;;;;;;;;16.54;48.13;99694.50;4754519;30;20311;-79
2022/04/24 16:46:08;;;;;;;;;;;;;;;16.48;47.53;99693.25;4752349;30;19926;-79
2022/04/24 16:48:53;;;;;;;;;;;;;;;16.40;48.11;99691.63;4752945;30;19922;-79
2022/04/24 17:00:48;;;;;;;;;;;;;;;16.39;48.39;99693.59;4764185;30;19926;-79
2022/04/24 17:03:32;;;;;;;;;;;;;;;16.33;49.50;99697.03;4752665;30;19922;-80
2022/04/24 17:06:17;;;;;;;;;;;;;;;16.22;48.20;99700.47;4754211;30;20325;-79
2022/04/24 17:09:02;;;;;;;;;;;;;;;16.08;48.05;99699.56;4757773;30;19922;-79
2022/04/24 17:11:46;;;;;;;;;;;;;;;15.96;49.51;99695.13;4755583;30;19922;-79
2022/04/24 17:14:31;;;;;;;;;;;;;;;15.92;50.69;99707.22;4766713;30;19923;-79
2022/04/24 17:17:23;;;;;;;;;;;;;;;15.68;51.56;99705.78;4764624;30;19929;-79
2022/04/24 17:20:08;;;;;;;;;;;;;;;15.75;50.96;99703.09;4745841;30;19926;-79
2022/04/24 17:22:56;;;;;;;;;;;;;;;15.74;51.79;99710.56;4752007;30;19922;-78
2022/04/24 17:25:41;;;;;;;;;;;;;;;15.70;52.06;99709.72;4751999;30;19925;-79
2022/04/24 17:28:25;;;;;;;;;;;;;;;15.66;52.09;99710.84;4755813;30;19922;-79
2022/04/24 17:31:10;;;;;;;;;;;;;;;15.65;52.97;99712.78;4753780;30;19926;-79
2022/04/24 17:33:54;;;;;;;;;;;;;;;15.59;53.19;99705.28;4752275;30;19922;-79
2022/04/24 17:36:39;;;;;;;;;;;;;;;15.54;53.83;99709.16;4754520;30;19926;-79
2022/04/24 17:39:23;;;;;;;;;;;;;;;15.48;54.50;99707.06;4753832;30;19926;-79
2022/04/24 17:42:08;;;;;;;;;;;;;;;15.43;55.03;99718.34;4763747;30;19922;-79
2022/04/24 17:44:52;;;;;;;;;;;;;;;15.40;54.72;99723.41;4755992;30;19922;-79
2022/04/24 17:47:38;;;;;;;;;;;;;;;15.35;55.08;99718.25;4751896;30;19922;-79
2022/04/24 17:50:26;;;;;;;;;;;;;;;15.29;54.74;99716.19;4752066;30;19922;-79
2022/04/24 17:53:11;;;;;;;;;;;;;;;15.25;54.20;99713.41;4755728;30;19922;-78
2022/04/24 17:55:58;;;;;;;;;;;;;;;15.12;55.38;99723.03;4751790;30;19933;-79
2022/04/24 17:58:43;;;;;;;;;;;;;;;15.13;55.18;99718.34;4752314;30;19956;-79
2022/04/24 18:01:29;;;;;;;;;;;;;;;15.04;55.42;99721.34;4762202;30;19930;-79
2022/04/24 18:04:14;;;;;;;;;;;;;;;15.03;55.64;99724.47;4759120;30;19922;-79
2022/04/24 18:06:58;;;;;;;;;;;;;;;14.99;56.08;99722.44;4764332;30;19922;-80
2022/04/24 18:09:43;;;;;;;;;;;;;;;14.92;56.49;99727.03;4748254;30;19926;-79
2022/04/24 18:12:28;;;;;;;;;;;;;;;14.79;57.65;99729.16;4747670;30;19927;-80
2022/04/24 18:15:12;;;;;;;;;;;;;;;14.90;57.77;99729.34;4743735;30;19922;-79
2022/04/24 18:17:57;;;;;;;;;;;;;;;15.01;56.71;99730.28;4748012;30;19944;-79
2022/04/24 18:20:43;;;;;;;;;;;;;;;14.89;57.17;99733.22;4762219;30;19926;-79
2022/04/24 18:23:28;;;;;;;;;;;;;;;14.86;57.38;99737.50;4749919;30;19926;-79
2022/04/24 18:26:13;;;;;;;;;;;;;;;14.72;58.09;99744.72;4746399;30;20405;-80
2022/04/24 18:28:57;;;;;;;;;;;;;;;14.71;58.28;99735.69;4765064;30;19926;-79
2022/04/24 18:31:42;;;;;;;;;;;;;;;14.64;58.27;99746.53;4747514;30;19922;-79
2022/04/24 18:34:28;;;;;;;;;;;;;;;14.63;58.72;99755.13;4752346;30;19922;-79
2022/04/24 18:40:17;;;;;;;;;;;;;;;14.72;59.91;99764.66;4754668;30;19926;-79
2022/04/24 18:43:03;;;;;;;;;;;;;;;14.59;62.05;99767.91;4758258;30;19926;-79
2022/04/24 18:45:47;;;;;;;;;;;;;;;14.49;61.18;99780.25;4749195;30;19923;-78
2022/04/24 18:48:32;;;;;;;;;;;;;;;14.46;62.48;99784.53;4751568;30;19948;-78
2022/04/24 18:51:16;;;;;;;;;;;;;;;14.38;62.71;99785.53;4749754;30;19922;-78
2022/04/24 18:54:01;;;;;;;;;;;;;;;14.42;63.40;99794.63;4752083;30;19922;-78
2022/04/24 18:56:46;;;;;;;;;;;;;;;14.32;63.77;99800.66;4764396;30;19922;-78
2022/04/24 18:59:31;;;;;;;;;;;;;;;14.34;63.75;99801.06;4764783;30;19927;-79
2022/04/24 19:02:15;;;;;;;;;;;;;;;14.25;62.85;99803.25;4769194;30;19922;-78
2022/04/24 19:08:03;;;;;;;;;;;;;;;14.20;63.48;99811.75;4753141;30;19922;-78
2022/04/24 19:13:53;;;;;;;;;;;;;;;14.11;64.86;99814.72;4752856;30;19922;-79
2022/04/24 19:16:38;;;;;;;;;;;;;;;14.18;64.48;99818.72;4751971;30;19922;-79
2022/04/24 19:19:22;;;;;;;;;;;;;;;14.30;64.46;99832.25;4750029;30;19926;-78
2022/04/24 19:22:06;;;;;;;;;;;;;;;13.68;63.68;99834.88;4752667;30;19923;-78
2022/04/24 19:24:51;;;;;;;;;;;;;;;13.89;63.53;99831.03;4757610;30;19923;-78
2022/04/24 19:27:36;;;;;;;;;;;;;;;14.06;64.32;99847.81;4752256;30;19938;-78
2022/04/24 19:30:21;;;;;;;;;;;;;;;14.14;64.19;99846.00;4762380;30;19922;-78
2022/04/24 19:33:06;;;;;;;;;;;;;;;14.22;62.79;99853.19;4750586;30;19926;-78
2022/04/24 19:35:51;;;;;;;;;;;;;;;14.19;62.79;99853.91;4753792;30;20323;-78
2022/04/24 19:38:39;;;;;;;;;;;;;;;14.17;64.45;99853.47;4753147;30;20307;-78
2022/04/24 19:41:23;;;;;;;;;;;;;;;13.91;65.41;99856.06;4747171;30;19926;-79
2022/04/24 19:44:09;;;;;;;;;;;;;;;13.76;66.22;99856.91;4750513;30;19922;-79
2022/04/24 19:46:54;;;;;;;;;;;;;;;13.65;66.04;99860.19;4752181;30;19925;-79
2022/04/24 19:49:43;;;;;;;;;;;;;;;13.75;64.75;99861.59;4752735;30;19930;-79
2022/04/24 19:52:27;;;;;;;;;;;;;;;13.58;66.42;99865.50;4749324;30;19922;-79
2022/04/24 19:55:12;;;;;;;;;;;;;;;13.45;66.08;99866.75;4753302;30;19922;-79
2022/04/24 19:57:56;;;;;;;;;;;;;;;13.70;64.90;99875.53;4749364;30;20167;-79
2022/04/24 20:00:41;;;;;;;;;;;;;;;13.53;66.54;99873.97;4749404;30;19926;-79
2022/04/24 20:03:26;;;;;;;;;;;;;;;13.47;66.57;99874.59;4750473;30;20384;-79
2022/04/24 20:06:11;;;;;;;;;;;;;;;13.41;67.05;99868.59;4763583;30;19926;-79
2022/04/24 20:08:56;;;;;;;;;;;;;;;13.39;67.48;99875.56;4752694;30;19930;-78
2022/04/24 20:11:41;;;;;;;;;;;;;;;13.63;64.69;99867.94;4753499;30;20311;-78
2022/04/24 20:14:26;;;;;;;;;;;;;;;13.39;65.96;99870.91;4765904;30;19922;-78
2022/04/24 20:17:10;;;;;;;;;;;;;;;13.40;67.52;99872.50;4754444;30;19926;-81
2022/04/24 20:19:54;;;;;;;;;;;;;;;13.49;67.99;99875.03;4752335;30;19930;-80
2022/04/24 20:22:39;;;;;;;;;;;;;;;13.71;65.49;99872.41;4751569;30;19923;-80
2022/04/24 20:25:24;;;;;;;;;;;;;;;13.82;66.49;99880.06;4754928;30;19922;-79
2022/04/24 20:28:08;;;;;;;;;;;;;;;13.91;66.24;99881.47;4766882;30;19922;-80
2022/04/24 20:30:53;;;;;;;;;;;;;;;13.94;66.35;99882.66;4751746;30;20296;-80
2022/04/24 20:33:38;;;;;;;;;;;;;;;13.98;65.68;99886.28;4751632;30;19922;-80
2022/04/24 20:36:22;;;;;;;;;;;;;;;14.12;65.41;99887.34;4767964;30;20392;-81
2022/04/24 20:39:10;;;;;;;;;;;;;;;13.85;65.28;99887.56;4747934;30;20304;-80
2022/04/24 20:41:54;;;;;;;;;;;;;;;13.97;65.03;99890.16;4769222;30;19930;-81
2022/04/24 20:44:39;;;;;;;;;;;;;;;14.10;63.74;99891.63;4767739;30;19922;-80
2022/04/24 20:47:25;;;;;;;;;;;;;;;14.12;64.96;99886.56;4748548;30;19923;-81
2022/04/24 20:50:09;;;;;;;;;;;;;;;14.10;64.36;99889.69;4749870;30;19926;-81
2022/04/24 20:52:53;;;;;;;;;;;;;;;13.66;66.23;99886.34;4767714;30;19922;-81
2022/04/24 20:55:38;;;;;;;;;;;;;;;13.74;65.26;99892.78;4749149;30;20316;-82
2022/04/24 20:58:23;;;;;;;;;;;;;;;13.69;67.01;99891.13;4764689;30;19922;-81
2022/04/24 21:01:07;;;;;;;;;;;;;;;13.55;67.10;99885.34;4752619;30;19926;-80